Flight Track Log - Related Links

Times and Time Zones

All times are in EDT time to prevent confusion due to time zone crossing. See the EJA312 flight status page for this flight to view local times or setup timezone preferences in your user account.

Time Position Orientation Groundspeed Altitude Reporting Facility
EDT Latitude Longitude Course Direction KTS MPH feet Rate Location/Type
Sun 07:13:19 PM 38.2167 -85.7500 341° North 195 224 4,400  Level Louisville TRACON
Sun 07:14:43 PM 38.2997 -85.7669 351° North 233 268 9,100 2,317 Climbing Indianapolis Center
Sun 07:15:44 PM 38.3606 -85.6992 41° Northeast 296 341 10,000 976 Climbing Indianapolis Center
Sun 07:16:46 PM 38.4225 -85.6067 49° Northeast 328 377 11,100 2,758 Climbing Indianapolis Center
Sun 07:17:48 PM 38.4944 -85.5003 49° Northeast 331 381 15,700 3,902 Climbing Indianapolis Center
Sun 07:18:00 PM 38.1846 -85.9434 341° North  Level FlightAware Approximate
Sun 07:18:49 PM 38.5506 -85.4158 50° Northeast 315 362 19,100  Level Indianapolis Center
Sun 07:19:51 PM 38.6033 -85.3347 50° Northeast 301 346 21,900 1,887 Climbing Indianapolis Center
Sun 07:20:53 PM 38.6600 -85.2497 49° Northeast 306 352 23,000 537 Climbing Indianapolis Center
Sun 07:21:54 PM 38.7267 -85.1503 49° Northeast 331 381 23,000  Level Indianapolis Center
Sun 07:22:56 PM 38.8033 -85.0297 51° Northeast 383 441 23,000  Level Indianapolis Center
Sun 07:23:58 PM 38.8792 -84.9142 50° Northeast 418 481 23,000  Level Indianapolis Center
Sun 07:25:00 PM 38.9528 -84.8019 50° Northeast 413 475 23,000  Level Indianapolis Center
Sun 07:26:01 PM 39.0386 -84.6681 50° Northeast 406 467 23,000  Level Indianapolis Center
Sun 07:27:03 PM 39.1033 -84.5481 55° Northeast 409 471 23,000  Level Indianapolis Center
Sun 07:28:05 PM 39.1678 -84.4275 55° Northeast 408 470 23,000 -634 Level Indianapolis Center
Sun 07:29:06 PM 39.2358 -84.3053 54° Northeast 419 482 21,700 -1,366 Descending Indianapolis Center
Sun 07:30:08 PM 39.3053 -84.1767 55° Northeast 436 502 20,200 -1,452 Descending Indianapolis Center
Sun 07:31:10 PM 39.3550 -84.0394 65° Northeast 427 491 18,700 -1,306 Descending Indianapolis Center
Sun 07:32:12 PM 39.4047 -83.9117 63° Northeast 404 465 17,500 -1,452 Descending Indianapolis Center
Sun 07:33:14 PM 39.4614 -83.7619 64° Northeast 391 450 15,700 -1,747 Descending Indianapolis Center
Sun 07:33:31 PM 39.4789 -83.7192 62° Northeast 386 444 15,200 -1,444 Descending Indianapolis Center
Sun 07:34:08 PM 39.5025 -83.6528 65° Northeast 385 443 14,400 -1,364 Descending Indianapolis Center
Sun 07:34:15 PM 39.5086 -83.6383 61° Northeast 386 444 14,200 -1,726 Descending Indianapolis Center
Sun 07:35:21 PM 39.5597 -83.5022 64° Northeast 383 441 12,300 -1,684 Descending Indianapolis Center
Sun 07:36:09 PM 39.6150 -83.4136 51° Northeast 377 434 11,000 -1,448 Descending Indianapolis Center
Sun 07:36:19 PM 39.6161 -83.4119 49° Northeast 377 434 10,900 -984 Descending Indianapolis Center
Sun 07:37:10 PM 39.7072 -83.3717 19° North 346 398 10,000 -871 Descending Indianapolis Center
Sun 07:37:21 PM 39.7083 -83.3697 53° Northeast 357 411 10,000 -873 Level Indianapolis Center
Sun 07:38:05 PM 39.7825 -83.3353 20° North 303 349 9,200 -1,161 Descending Indianapolis Center
Sun 07:38:23 PM 39.8033 -83.3258 19° North 304 350 8,800 -1,475 Descending Indianapolis Center
Sun 07:39:06 PM 39.8569 -83.3039 17° North 273 314 7,700 -1,377 Descending Indianapolis Center
Sun 07:39:24 PM 39.8756 -83.2942 22° Northeast 281 323 7,400 -1,500 Descending Indianapolis Center
Sun 07:40:06 PM 39.9317 -83.2700 18° North 283 326 6,200 -1,452 Descending Indianapolis Center
Sun 07:40:26 PM 39.9494 -83.2614 20° North 283 326 5,900 -1,452 Descending Indianapolis Center
Sun 07:41:08 PM 40.0042 -83.2381 18° North 277 319 4,700 -1,452 Descending Indianapolis Center
Sun 07:41:28 PM 40.0217 -83.2289 22° Northeast 280 322 4,400 -700 Descending Indianapolis Center
Sun 07:42:08 PM 40.0747 -83.2058 18° North 231 266 4,000 -387 Descending Indianapolis Center
Sun 07:42:30 PM 40.0853 -83.2006 21° North 260 299 4,000 -393 Level Indianapolis Center
Sun 07:43:09 PM 40.1383 -83.1781 18° North 241 277 3,600 -689 Descending Indianapolis Center
Sun 07:43:31 PM 40.1597 -83.1678 20° North 240 276 3,300 -429 Descending Indianapolis Center
Sun 07:44:33 PM 40.2164 -83.1422 19° North 237 273 3,000 -290 Descending Indianapolis Center
Sun 07:46:00 PM 40.2667 -83.1000 21° North  Level FlightAware Approximate
Sun 07:53:00 PM 40.2797 -83.1148 21° North  Level Estimated
Sun 07:54:00 PM 40.2797 -83.1148 21° North  Level Estimated

Login

Don't have an account? Register now (free) for customized features, flight alerts, and more!